sensor_id;sensor_type;location;lat;lon;timestamp;pressure;altitude;pressure_sealevel;temperature;humidity
34031;BME280;20319;28.466;-16.274;2022-08-16T00:00:48;100034.72;;;26.41;64.35
34031;BME280;20319;28.466;-16.274;2022-08-16T00:03:14;100034.03;;;26.34;64.32
34031;BME280;20319;28.466;-16.274;2022-08-16T00:05:41;100027.16;;;26.32;64.35
34031;BME280;20319;28.466;-16.274;2022-08-16T00:08:07;100027.91;;;26.27;64.57
34031;BME280;20319;28.466;-16.274;2022-08-16T00:10:33;100017.16;;;26.26;64.37
34031;BME280;20319;28.466;-16.274;2022-08-16T00:13:00;100018.47;;;26.23;64.79
34031;BME280;20319;28.466;-16.274;2022-08-16T00:15:37;100020.59;;;26.16;64.98
34031;BME280;20319;28.466;-16.274;2022-08-16T00:18:04;100018.00;;;26.09;65.00
34031;BME280;20319;28.466;-16.274;2022-08-16T00:20:30;100015.16;;;26.04;65.26
34031;BME280;20319;28.466;-16.274;2022-08-16T00:22:57;100001.97;;;25.90;65.45
34031;BME280;20319;28.466;-16.274;2022-08-16T00:25:24;99999.13;;;25.85;65.45
34031;BME280;20319;28.466;-16.274;2022-08-16T00:27:50;100012.06;;;25.84;65.69
34031;BME280;20319;28.466;-16.274;2022-08-16T00:30:18;100006.66;;;25.89;66.04
34031;BME280;20319;28.466;-16.274;2022-08-16T00:32:49;100007.56;;;25.95;65.91
34031;BME280;20319;28.466;-16.274;2022-08-16T00:35:20;100000.75;;;25.97;65.71
34031;BME280;20319;28.466;-16.274;2022-08-16T00:37:47;100002.78;;;26.02;65.67
34031;BME280;20319;28.466;-16.274;2022-08-16T00:40:17;100004.44;;;26.03;65.63
34031;BME280;20319;28.466;-16.274;2022-08-16T00:42:43;100002.25;;;26.05;65.55
34031;BME280;20319;28.466;-16.274;2022-08-16T00:47:53;99994.63;;;26.07;65.58
34031;BME280;20319;28.466;-16.274;2022-08-16T00:50:24;100002.09;;;26.11;65.34
34031;BME280;20319;28.466;-16.274;2022-08-16T00:52:50;100000.75;;;26.14;65.05
34031;BME280;20319;28.466;-16.274;2022-08-16T00:55:24;99993.94;;;26.17;64.69
34031;BME280;20319;28.466;-16.274;2022-08-16T00:57:52;99997.75;;;26.15;64.54
34031;BME280;20319;28.466;-16.274;2022-08-16T01:00:28;99995.25;;;26.14;64.43
34031;BME280;20319;28.466;-16.274;2022-08-16T01:02:57;99993.94;;;26.17;64.38
34031;BME280;20319;28.466;-16.274;2022-08-16T01:05:30;99990.94;;;26.18;64.12
34031;BME280;20319;28.466;-16.274;2022-08-16T01:07:56;99983.75;;;26.17;63.75
34031;BME280;20319;28.466;-16.274;2022-08-16T01:10:25;99985.75;;;26.22;63.63
34031;BME280;20319;28.466;-16.274;2022-08-16T01:12:52;99984.34;;;26.19;63.72
34031;BME280;20319;28.466;-16.274;2022-08-16T01:15:17;99973.00;;;26.15;63.93
34031;BME280;20319;28.466;-16.274;2022-08-16T01:17:45;99971.03;;;26.11;64.17
34031;BME280;20319;28.466;-16.274;2022-08-16T01:20:12;99976.59;;;26.16;64.19
34031;BME280;20319;28.466;-16.274;2022-08-16T01:25:26;99932.78;;;25.93;64.08
34031;BME280;20319;28.466;-16.274;2022-08-16T01:27:56;99961.28;;;26.03;64.19
34031;BME280;20319;28.466;-16.274;2022-08-16T01:30:26;99959.28;;;25.99;64.44
34031;BME280;20319;28.466;-16.274;2022-08-16T01:32:55;99954.59;;;25.99;64.45
34031;BME280;20319;28.466;-16.274;2022-08-16T01:35:37;99954.75;;;25.93;64.55
34031;BME280;20319;28.466;-16.274;2022-08-16T01:38:38;99944.78;;;25.87;64.71
34031;BME280;20319;28.466;-16.274;2022-08-16T01:41:15;99941.94;;;25.82;64.46
34031;BME280;20319;28.466;-16.274;2022-08-16T01:43:43;99941.84;;;25.77;64.89
34031;BME280;20319;28.466;-16.274;2022-08-16T01:46:26;99938.88;;;25.78;64.73
34031;BME280;20319;28.466;-16.274;2022-08-16T01:48:59;99946.13;;;25.84;64.45
34031;BME280;20319;28.466;-16.274;2022-08-16T01:51:28;99931.03;;;25.87;64.70
34031;BME280;20319;28.466;-16.274;2022-08-16T01:53:54;99919.97;;;25.82;64.22
34031;BME280;20319;28.466;-16.274;2022-08-16T01:56:20;99917.56;;;25.85;64.37
34031;BME280;20319;28.466;-16.274;2022-08-16T01:58:46;99919.47;;;25.85;64.77
34031;BME280;20319;28.466;-16.274;2022-08-16T02:01:12;99911.81;;;25.87;64.57
34031;BME280;20319;28.466;-16.274;2022-08-16T02:03:38;99911.31;;;25.90;64.23
34031;BME280;20319;28.466;-16.274;2022-08-16T02:06:04;99887.00;;;25.82;64.29
34031;BME280;20319;28.466;-16.274;2022-08-16T02:08:30;99886.31;;;25.91;64.42
34031;BME280;20319;28.466;-16.274;2022-08-16T02:10:56;99890.50;;;25.94;64.46
34031;BME280;20319;28.466;-16.274;2022-08-16T02:13:22;99886.66;;;25.95;63.97
34031;BME280;20319;28.466;-16.274;2022-08-16T02:15:48;99882.81;;;25.96;64.08
34031;BME280;20319;28.466;-16.274;2022-08-16T02:18:14;99873.00;;;25.83;64.42
34031;BME280;20319;28.466;-16.274;2022-08-16T02:20:42;99870.16;;;25.95;64.47
34031;BME280;20319;28.466;-16.274;2022-08-16T02:23:12;99874.81;;;25.94;64.52
34031;BME280;20319;28.466;-16.274;2022-08-16T02:25:37;99864.84;;;25.88;64.47
34031;BME280;20319;28.466;-16.274;2022-08-16T02:28:03;99834.50;;;25.62;65.17
34031;BME280;20319;28.466;-16.274;2022-08-16T02:30:31;99866.13;;;25.81;65.37
34031;BME280;20319;28.466;-16.274;2022-08-16T02:32:57;99859.59;;;25.87;65.15
34031;BME280;20319;28.466;-16.274;2022-08-16T02:35:24;99853.59;;;25.90;65.43
34031;BME280;20319;28.466;-16.274;2022-08-16T02:37:50;99849.28;;;25.94;65.25
34031;BME280;20319;28.466;-16.274;2022-08-16T02:40:17;99830.50;;;25.86;65.29
34031;BME280;20319;28.466;-16.274;2022-08-16T02:42:44;99841.84;;;25.94;64.92
34031;BME280;20319;28.466;-16.274;2022-08-16T02:45:09;99837.13;;;25.90;65.36
34031;BME280;20319;28.466;-16.274;2022-08-16T02:47:35;99836.63;;;25.93;65.10
34031;BME280;20319;28.466;-16.274;2022-08-16T02:50:01;99828.38;;;25.93;65.36
34031;BME280;20319;28.466;-16.274;2022-08-16T02:52:26;99819.63;;;25.96;65.29
34031;BME280;20319;28.466;-16.274;2022-08-16T02:54:52;99798.59;;;25.85;65.21
34031;BME280;20319;28.466;-16.274;2022-08-16T02:57:18;99815.06;;;26.01;65.36
34031;BME280;20319;28.466;-16.274;2022-08-16T02:59:43;99810.41;;;26.02;65.24
34031;BME280;20319;28.466;-16.274;2022-08-16T03:02:09;99791.78;;;25.87;65.55
34031;BME280;20319;28.466;-16.274;2022-08-16T03:04:38;99818.47;;;25.92;65.65
34031;BME280;20319;28.466;-16.274;2022-08-16T03:07:05;99826.47;;;25.93;65.61
34031;BME280;20319;28.466;-16.274;2022-08-16T03:09:32;99824.56;;;25.94;65.62
34031;BME280;20319;28.466;-16.274;2022-08-16T03:11:58;99820.72;;;25.95;65.43
34031;BME280;20319;28.466;-16.274;2022-08-16T03:14:24;99825.63;;;25.93;65.48
34031;BME280;20319;28.466;-16.274;2022-08-16T03:16:51;99824.47;;;25.89;65.21
34031;BME280;20319;28.466;-16.274;2022-08-16T03:19:16;99810.59;;;25.79;65.33
34031;BME280;20319;28.466;-16.274;2022-08-16T03:21:42;99826.38;;;25.88;65.21
34031;BME280;20319;28.466;-16.274;2022-08-16T03:24:08;99813.94;;;25.81;65.11
34031;BME280;20319;28.466;-16.274;2022-08-16T03:26:33;99826.66;;;25.87;65.00
34031;BME280;20319;28.466;-16.274;2022-08-16T03:28:59;99826.91;;;25.85;64.80
34031;BME280;20319;28.466;-16.274;2022-08-16T03:31:25;99825.59;;;25.88;64.91
34031;BME280;20319;28.466;-16.274;2022-08-16T03:33:51;99836.78;;;25.86;64.63
34031;BME280;20319;28.466;-16.274;2022-08-16T03:36:16;99835.31;;;25.79;64.57
34031;BME280;20319;28.466;-16.274;2022-08-16T03:38:42;99834.72;;;25.77;64.96
34031;BME280;20319;28.466;-16.274;2022-08-16T03:41:08;99824.41;;;25.67;64.85
34031;BME280;20319;28.466;-16.274;2022-08-16T03:43:34;99832.91;;;25.66;65.17
34031;BME280;20319;28.466;-16.274;2022-08-16T03:46:01;99828.50;;;25.65;65.21
34031;BME280;20319;28.466;-16.274;2022-08-16T03:48:30;99843.84;;;25.61;65.15
34031;BME280;20319;28.466;-16.274;2022-08-16T03:51:00;99838.81;;;25.58;65.55
34031;BME280;20319;28.466;-16.274;2022-08-16T03:53:27;99841.09;;;25.61;64.95
34031;BME280;20319;28.466;-16.274;2022-08-16T03:55:53;99828.34;;;25.55;65.15
34031;BME280;20319;28.466;-16.274;2022-08-16T03:58:19;99839.59;;;25.70;64.88
34031;BME280;20319;28.466;-16.274;2022-08-16T04:00:45;99830.75;;;25.68;64.13
34031;BME280;20319;28.466;-16.274;2022-08-16T04:03:10;99830.75;;;25.68;63.95
34031;BME280;20319;28.466;-16.274;2022-08-16T04:05:43;99837.09;;;25.68;64.38
34031;BME280;20319;28.466;-16.274;2022-08-16T04:08:10;99828.25;;;25.83;63.62
34031;BME280;20319;28.466;-16.274;2022-08-16T04:10:36;99821.25;;;25.75;63.82
34031;BME280;20319;28.466;-16.274;2022-08-16T04:13:01;99818.94;;;25.67;63.98
34031;BME280;20319;28.466;-16.274;2022-08-16T04:15:27;99832.50;;;25.74;64.14
34031;BME280;20319;28.466;-16.274;2022-08-16T04:17:54;99800.13;;;25.59;64.33
34031;BME280;20319;28.466;-16.274;2022-08-16T04:20:20;99834.16;;;25.75;64.46
34031;BME280;20319;28.466;-16.274;2022-08-16T04:22:46;99828.69;;;25.75;64.47
34031;BME280;20319;28.466;-16.274;2022-08-16T04:25:12;99828.16;;;25.78;64.45
34031;BME280;20319;28.466;-16.274;2022-08-16T04:27:39;99823.00;;;25.81;64.20
34031;BME280;20319;28.466;-16.274;2022-08-16T04:30:09;99793.47;;;25.72;64.09
34031;BME280;20319;28.466;-16.274;2022-08-16T04:32:36;99815.16;;;25.90;63.88
34031;BME280;20319;28.466;-16.274;2022-08-16T04:35:04;99813.25;;;25.90;63.81
34031;BME280;20319;28.466;-16.274;2022-08-16T04:37:30;99817.09;;;25.89;63.86
34031;BME280;20319;28.466;-16.274;2022-08-16T04:39:55;99812.97;;;25.92;64.17
34031;BME280;20319;28.466;-16.274;2022-08-16T04:42:21;99812.13;;;25.91;64.04
34031;BME280;20319;28.466;-16.274;2022-08-16T04:44:46;99792.03;;;25.86;63.87
34031;BME280;20319;28.466;-16.274;2022-08-16T04:47:13;99816.31;;;25.94;63.88
34031;BME280;20319;28.466;-16.274;2022-08-16T04:49:39;99813.50;;;25.89;64.43
34031;BME280;20319;28.466;-16.274;2022-08-16T04:52:05;99808.25;;;25.87;64.41
34031;BME280;20319;28.466;-16.274;2022-08-16T04:54:31;99814.06;;;25.91;64.49
34031;BME280;20319;28.466;-16.274;2022-08-16T04:56:56;99812.41;;;25.90;64.72
34031;BME280;20319;28.466;-16.274;2022-08-16T04:59:22;99808.84;;;25.89;64.69
34031;BME280;20319;28.466;-16.274;2022-08-16T05:01:48;99813.75;;;25.87;64.59
34031;BME280;20319;28.466;-16.274;2022-08-16T05:04:14;99810.94;;;25.82;64.94
34031;BME280;20319;28.466;-16.274;2022-08-16T05:06:40;99812.06;;;25.86;64.73
34031;BME280;20319;28.466;-16.274;2022-08-16T05:09:05;99821.47;;;25.90;65.13
34031;BME280;20319;28.466;-16.274;2022-08-16T05:11:31;99801.75;;;25.93;64.73
34031;BME280;20319;28.466;-16.274;2022-08-16T05:13:57;99812.97;;;25.92;64.98
34031;BME280;20319;28.466;-16.274;2022-08-16T05:16:28;99809.09;;;25.88;65.27
34031;BME280;20319;28.466;-16.274;2022-08-16T05:18:55;99817.34;;;25.88;65.33
34031;BME280;20319;28.466;-16.274;2022-08-16T05:21:22;99811.25;;;25.86;65.61
34031;BME280;20319;28.466;-16.274;2022-08-16T05:23:49;99802.59;;;25.77;66.07
34031;BME280;20319;28.466;-16.274;2022-08-16T05:26:15;99815.28;;;25.78;66.34
34031;BME280;20319;28.466;-16.274;2022-08-16T05:28:41;99803.97;;;25.75;65.89
34031;BME280;20319;28.466;-16.274;2022-08-16T05:31:06;99822.25;;;25.86;66.29
34031;BME280;20319;28.466;-16.274;2022-08-16T05:33:32;99827.22;;;25.89;65.87
34031;BME280;20319;28.466;-16.274;2022-08-16T05:35:58;99823.06;;;25.86;66.00
34031;BME280;20319;28.466;-16.274;2022-08-16T05:38:23;99809.78;;;25.78;66.14
34031;BME280;20319;28.466;-16.274;2022-08-16T05:40:53;99812.81;;;25.82;66.22
34031;BME280;20319;28.466;-16.274;2022-08-16T05:43:20;99824.59;;;25.77;66.22
34031;BME280;20319;28.466;-16.274;2022-08-16T05:45:45;99833.00;;;25.71;66.28
34031;BME280;20319;28.466;-16.274;2022-08-16T05:48:11;99815.81;;;25.59;66.22
34031;BME280;20319;28.466;-16.274;2022-08-16T05:50:37;99818.28;;;25.60;66.68
34031;BME280;20319;28.466;-16.274;2022-08-16T05:53:02;99824.41;;;25.67;66.64
34031;BME280;20319;28.466;-16.274;2022-08-16T05:55:28;99825.25;;;25.68;66.98
34031;BME280;20319;28.466;-16.274;2022-08-16T05:57:54;99828.94;;;25.73;66.52
34031;BME280;20319;28.466;-16.274;2022-08-16T06:00:19;99827.59;;;25.76;66.75
34031;BME280;20319;28.466;-16.274;2022-08-16T06:02:45;99830.91;;;25.78;66.71
34031;BME280;20319;28.466;-16.274;2022-08-16T06:05:11;99828.75;;;25.80;66.96
34031;BME280;20319;28.466;-16.274;2022-08-16T06:07:37;99835.91;;;25.81;66.82
34031;BME280;20319;28.466;-16.274;2022-08-16T06:10:03;99836.22;;;25.84;66.79
34031;BME280;20319;28.466;-16.274;2022-08-16T06:12:29;99835.81;;;25.76;66.83
34031;BME280;20319;28.466;-16.274;2022-08-16T06:15:00;99836.84;;;25.70;66.46
34031;BME280;20319;28.466;-16.274;2022-08-16T06:17:28;99843.06;;;25.82;66.14
34031;BME280;20319;28.466;-16.274;2022-08-16T06:19:54;99841.47;;;25.86;66.44
34031;BME280;20319;28.466;-16.274;2022-08-16T06:22:20;99843.88;;;25.82;66.75
34031;BME280;20319;28.466;-16.274;2022-08-16T06:24:46;99838.91;;;25.79;66.82
34031;BME280;20319;28.466;-16.274;2022-08-16T06:27:12;99857.22;;;25.74;66.98
34031;BME280;20319;28.466;-16.274;2022-08-16T06:29:44;99845.41;;;25.73;67.23
34031;BME280;20319;28.466;-16.274;2022-08-16T06:32:10;99858.13;;;25.79;67.12
34031;BME280;20319;28.466;-16.274;2022-08-16T06:34:36;99854.03;;;25.82;66.77
34031;BME280;20319;28.466;-16.274;2022-08-16T06:37:02;99857.28;;;25.79;66.97
34031;BME280;20319;28.466;-16.274;2022-08-16T06:39:28;99849.56;;;25.76;66.64
34031;BME280;20319;28.466;-16.274;2022-08-16T06:41:54;99856.47;;;25.78;66.19
34031;BME280;20319;28.466;-16.274;2022-08-16T06:44:20;99861.06;;;25.73;65.53
34031;BME280;20319;28.466;-16.274;2022-08-16T06:46:46;99870.03;;;25.68;65.77
34031;BME280;20319;28.466;-16.274;2022-08-16T06:49:11;99866.97;;;25.65;65.56
34031;BME280;20319;28.466;-16.274;2022-08-16T06:51:38;99870.47;;;25.60;65.67
34031;BME280;20319;28.466;-16.274;2022-08-16T06:54:05;99883.00;;;25.56;65.31
34031;BME280;20319;28.466;-16.274;2022-08-16T06:56:31;99886.09;;;25.60;65.61
34031;BME280;20319;28.466;-16.274;2022-08-16T06:58:57;99888.94;;;25.65;65.09
34031;BME280;20319;28.466;-16.274;2022-08-16T07:01:23;99880.94;;;25.63;64.70
34031;BME280;20319;28.466;-16.274;2022-08-16T07:03:50;99891.78;;;25.70;64.66
34031;BME280;20319;28.466;-16.274;2022-08-16T07:06:23;99889.66;;;25.77;64.81
34031;BME280;20319;28.466;-16.274;2022-08-16T07:08:56;99877.53;;;25.73;64.09
34031;BME280;20319;28.466;-16.274;2022-08-16T07:11:24;99896.75;;;25.89;64.01
34031;BME280;20319;28.466;-16.274;2022-08-16T07:13:52;99900.31;;;25.90;63.60
34031;BME280;20319;28.466;-16.274;2022-08-16T07:16:18;99891.50;;;25.88;63.57
34031;BME280;20319;28.466;-16.274;2022-08-16T07:18:46;99896.50;;;25.91;63.55
34031;BME280;20319;28.466;-16.274;2022-08-16T07:21:19;99895.91;;;25.89;63.43
34031;BME280;20319;28.466;-16.274;2022-08-16T07:23:52;99900.81;;;25.87;63.64
34031;BME280;20319;28.466;-16.274;2022-08-16T07:26:21;99908.41;;;25.80;63.43
34031;BME280;20319;28.466;-16.274;2022-08-16T07:28:47;99899.59;;;25.78;63.69
34031;BME280;20319;28.466;-16.274;2022-08-16T07:31:18;99906.09;;;25.72;64.26
34031;BME280;20319;28.466;-16.274;2022-08-16T07:33:45;99905.00;;;25.73;64.18
34031;BME280;20319;28.466;-16.274;2022-08-16T07:36:12;99911.72;;;25.82;63.97
34031;BME280;20319;28.466;-16.274;2022-08-16T07:38:41;99905.66;;;25.80;64.31
34031;BME280;20319;28.466;-16.274;2022-08-16T07:41:09;99917.31;;;25.87;63.85
34031;BME280;20319;28.466;-16.274;2022-08-16T07:43:40;99913.78;;;25.91;64.20
34031;BME280;20319;28.466;-16.274;2022-08-16T07:46:07;99916.28;;;25.93;63.82
34031;BME280;20319;28.466;-16.274;2022-08-16T07:48:35;99921.28;;;25.96;64.23
34031;BME280;20319;28.466;-16.274;2022-08-16T07:51:02;99920.22;;;25.97;63.99
34031;BME280;20319;28.466;-16.274;2022-08-16T07:53:34;99914.00;;;26.01;64.00
34031;BME280;20319;28.466;-16.274;2022-08-16T07:56:04;99901.22;;;25.95;63.70
34031;BME280;20319;28.466;-16.274;2022-08-16T07:58:30;99889.91;;;25.92;63.80
34031;BME280;20319;28.466;-16.274;2022-08-16T08:00:57;99891.31;;;25.94;63.58
34031;BME280;20319;28.466;-16.274;2022-08-16T08:03:23;99892.66;;;25.92;63.48
34031;BME280;20319;28.466;-16.274;2022-08-16T08:05:51;99914.97;;;26.12;63.38
34031;BME280;20319;28.466;-16.274;2022-08-16T08:08:19;99908.97;;;26.15;63.14
34031;BME280;20319;28.466;-16.274;2022-08-16T08:10:46;99902.13;;;26.17;62.80
34031;BME280;20319;28.466;-16.274;2022-08-16T08:13:16;99907.72;;;26.23;62.79
34031;BME280;20319;28.466;-16.274;2022-08-16T08:15:42;99912.69;;;26.26;62.33
34031;BME280;20319;28.466;-16.274;2022-08-16T08:18:09;99902.53;;;26.26;62.49
34031;BME280;20319;28.466;-16.274;2022-08-16T08:20:37;99903.75;;;26.35;62.09
34031;BME280;20319;28.466;-16.274;2022-08-16T08:23:03;99913.72;;;26.41;61.81
34031;BME280;20319;28.466;-16.274;2022-08-16T08:25:32;99909.88;;;26.42;61.65
34031;BME280;20319;28.466;-16.274;2022-08-16T08:28:00;99902.34;;;26.33;61.70
34031;BME280;20319;28.466;-16.274;2022-08-16T08:30:29;99908.22;;;26.41;61.31
34031;BME280;20319;28.466;-16.274;2022-08-16T08:32:54;99913.72;;;26.41;61.45
34031;BME280;20319;28.466;-16.274;2022-08-16T08:35:21;99914.06;;;26.45;61.43
34031;BME280;20319;28.466;-16.274;2022-08-16T08:37:46;99920.00;;;26.58;61.45
34031;BME280;20319;28.466;-16.274;2022-08-16T08:40:14;99916.91;;;26.71;61.39
34031;BME280;20319;28.466;-16.274;2022-08-16T08:42:44;99917.88;;;26.82;61.38
34031;BME280;20319;28.466;-16.274;2022-08-16T08:45:12;99918.34;;;27.00;61.01
34031;BME280;20319;28.466;-16.274;2022-08-16T08:47:39;99918.56;;;27.20;60.91
34031;BME280;20319;28.466;-16.274;2022-08-16T08:50:05;99915.47;;;27.38;60.54
34031;BME280;20319;28.466;-16.274;2022-08-16T08:52:32;99922.47;;;27.51;60.05
34031;BME280;20319;28.466;-16.274;2022-08-16T08:55:01;99913.47;;;27.61;59.59
34031;BME280;20319;28.466;-16.274;2022-08-16T08:57:30;99909.66;;;27.67;59.58
34031;BME280;20319;28.466;-16.274;2022-08-16T08:59:56;99893.69;;;27.69;59.04
34031;BME280;20319;28.466;-16.274;2022-08-16T09:02:23;99920.28;;;27.85;58.89
34031;BME280;20319;28.466;-16.274;2022-08-16T09:04:52;99922.50;;;27.88;58.42
34031;BME280;20319;28.466;-16.274;2022-08-16T09:07:28;99921.44;;;27.89;58.31
34031;BME280;20319;28.466;-16.274;2022-08-16T09:09:54;99921.78;;;27.97;58.30
34031;BME280;20319;28.466;-16.274;2022-08-16T09:12:22;99916.03;;;28.04;57.95
34031;BME280;20319;28.466;-16.274;2022-08-16T09:14:49;99916.63;;;28.06;57.70
34031;BME280;20319;28.466;-16.274;2022-08-16T09:17:15;99914.69;;;28.11;57.98
34031;BME280;20319;28.466;-16.274;2022-08-16T09:19:41;99913.91;;;28.16;57.36
34031;BME280;20319;28.466;-16.274;2022-08-16T09:22:08;99909.50;;;28.15;57.34
34031;BME280;20319;28.466;-16.274;2022-08-16T09:24:36;99919.44;;;28.21;57.47
34031;BME280;20319;28.466;-16.274;2022-08-16T09:27:02;99907.28;;;28.12;57.42
34031;BME280;20319;28.466;-16.274;2022-08-16T09:29:27;99917.28;;;28.23;57.11
34031;BME280;20319;28.466;-16.274;2022-08-16T09:31:57;99917.31;;;28.28;57.27
34031;BME280;20319;28.466;-16.274;2022-08-16T09:34:23;99923.63;;;28.28;56.99
34031;BME280;20319;28.466;-16.274;2022-08-16T09:36:49;99924.50;;;28.34;57.16
34031;BME280;20319;28.466;-16.274;2022-08-16T09:39:15;99921.19;;;28.37;56.90
34031;BME280;20319;28.466;-16.274;2022-08-16T09:41:45;99926.75;;;28.42;56.73
34031;BME280;20319;28.466;-16.274;2022-08-16T09:44:17;99925.63;;;28.43;56.68
34031;BME280;20319;28.466;-16.274;2022-08-16T09:46:45;99930.69;;;28.51;56.33
34031;BME280;20319;28.466;-16.274;2022-08-16T09:49:15;99933.44;;;28.51;56.13
34031;BME280;20319;28.466;-16.274;2022-08-16T09:51:41;99942.25;;;28.48;56.57
34031;BME280;20319;28.466;-16.274;2022-08-16T09:54:07;99944.94;;;28.43;56.63
34031;BME280;20319;28.466;-16.274;2022-08-16T09:56:36;99936.41;;;28.44;56.57
34031;BME280;20319;28.466;-16.274;2022-08-16T09:59:04;99947.50;;;28.49;56.74
34031;BME280;20319;28.466;-16.274;2022-08-16T10:01:30;99948.38;;;28.55;56.75
34031;BME280;20319;28.466;-16.274;2022-08-16T10:03:56;99942.28;;;28.53;56.82
34031;BME280;20319;28.466;-16.274;2022-08-16T10:06:23;99945.09;;;28.63;56.48
34031;BME280;20319;28.466;-16.274;2022-08-16T10:08:50;99948.13;;;28.61;56.56
34031;BME280;20319;28.466;-16.274;2022-08-16T10:11:16;99953.38;;;28.63;56.38
34031;BME280;20319;28.466;-16.274;2022-08-16T10:14:01;99950.31;;;28.59;56.85
34031;BME280;20319;28.466;-16.274;2022-08-16T10:16:27;99941.72;;;28.51;56.89
34031;BME280;20319;28.466;-16.274;2022-08-16T10:18:53;99959.44;;;28.65;56.77
34031;BME280;20319;28.466;-16.274;2022-08-16T10:21:19;99961.16;;;28.71;56.97
34031;BME280;20319;28.466;-16.274;2022-08-16T10:23:47;99956.75;;;28.75;56.65
34031;BME280;20319;28.466;-16.274;2022-08-16T10:26:14;99963.66;;;28.77;55.97
34031;BME280;20319;28.466;-16.274;2022-08-16T10:28:43;99968.09;;;28.83;56.00
34031;BME280;20319;28.466;-16.274;2022-08-16T10:31:09;99956.81;;;28.90;56.46
34031;BME280;20319;28.466;-16.274;2022-08-16T10:33:35;99953.84;;;29.07;55.68
34031;BME280;20319;28.466;-16.274;2022-08-16T10:36:06;99952.50;;;29.09;55.76
34031;BME280;20319;28.466;-16.274;2022-08-16T10:38:35;99956.38;;;29.13;55.66
34031;BME280;20319;28.466;-16.274;2022-08-16T10:41:01;99959.69;;;29.15;55.41
34031;BME280;20319;28.466;-16.274;2022-08-16T10:43:28;99958.59;;;29.21;55.79
34031;BME280;20319;28.466;-16.274;2022-08-16T10:45:54;99950.34;;;29.31;55.49
34031;BME280;20319;28.466;-16.274;2022-08-16T10:48:19;99942.34;;;29.30;55.52
34031;BME280;20319;28.466;-16.274;2022-08-16T10:50:45;99956.97;;;29.35;54.89
34031;BME280;20319;28.466;-16.274;2022-08-16T10:53:11;99946.47;;;29.37;55.36
34031;BME280;20319;28.466;-16.274;2022-08-16T10:55:39;99939.81;;;29.33;54.99
34031;BME280;20319;28.466;-16.274;2022-08-16T10:58:10;99941.78;;;29.48;54.67
34031;BME280;20319;28.466;-16.274;2022-08-16T11:00:39;99946.50;;;29.52;55.12
34031;BME280;20319;28.466;-16.274;2022-08-16T11:03:06;99941.22;;;29.51;54.72
34031;BME280;20319;28.466;-16.274;2022-08-16T11:05:35;99951.22;;;29.57;54.72
34031;BME280;20319;28.466;-16.274;2022-08-16T11:08:03;99934.63;;;29.57;54.58
34031;BME280;20319;28.466;-16.274;2022-08-16T11:10:34;99945.41;;;29.63;54.02
34031;BME280;20319;28.466;-16.274;2022-08-16T11:13:00;99949.88;;;29.69;54.41
34031;BME280;20319;28.466;-16.274;2022-08-16T11:15:26;99929.91;;;29.62;54.27
34031;BME280;20319;28.466;-16.274;2022-08-16T11:17:54;99952.38;;;29.81;54.14
34031;BME280;20319;28.466;-16.274;2022-08-16T11:20:20;99939.63;;;29.80;54.35
34031;BME280;20319;28.466;-16.274;2022-08-16T11:22:48;99949.28;;;29.87;54.05
34031;BME280;20319;28.466;-16.274;2022-08-16T11:25:16;99952.91;;;29.83;53.83
34031;BME280;20319;28.466;-16.274;2022-08-16T11:27:42;99954.31;;;29.85;53.79
34031;BME280;20319;28.466;-16.274;2022-08-16T11:30:11;99947.66;;;29.91;54.12
34031;BME280;20319;28.466;-16.274;2022-08-16T11:32:37;99940.44;;;30.05;53.91
34031;BME280;20319;28.466;-16.274;2022-08-16T11:35:07;99935.47;;;30.17;53.44
34031;BME280;20319;28.466;-16.274;2022-08-16T11:37:33;99946.25;;;30.24;53.77
34031;BME280;20319;28.466;-16.274;2022-08-16T11:40:00;99944.88;;;30.37;53.15
34031;BME280;20319;28.466;-16.274;2022-08-16T11:42:25;99952.63;;;30.35;53.26
34031;BME280;20319;28.466;-16.274;2022-08-16T11:44:51;99947.06;;;30.40;53.39
34031;BME280;20319;28.466;-16.274;2022-08-16T11:47:16;99929.63;;;30.34;53.18
34031;BME280;20319;28.466;-16.274;2022-08-16T11:49:42;99950.91;;;30.59;52.88
34031;BME280;20319;28.466;-16.274;2022-08-16T11:52:08;99959.16;;;30.64;52.82
34031;BME280;20319;28.466;-16.274;2022-08-16T11:54:34;99946.44;;;30.63;52.96
34031;BME280;20319;28.466;-16.274;2022-08-16T11:57:00;99939.56;;;30.45;53.09
34031;BME280;20319;28.466;-16.274;2022-08-16T11:59:27;99931.84;;;30.32;53.43
34031;BME280;20319;28.466;-16.274;2022-08-16T12:01:54;99939.28;;;30.42;53.41
34031;BME280;20319;28.466;-16.274;2022-08-16T12:04:20;99937.28;;;30.62;53.21
34031;BME280;20319;28.466;-16.274;2022-08-16T12:06:47;99932.88;;;30.66;52.92
34031;BME280;20319;28.466;-16.274;2022-08-16T12:09:12;99924.38;;;30.43;52.83
34031;BME280;20319;28.466;-16.274;2022-08-16T12:11:38;99930.13;;;30.51;53.18
34031;BME280;20319;28.466;-16.274;2022-08-16T12:14:05;99933.47;;;30.53;53.05
34031;BME280;20319;28.466;-16.274;2022-08-16T12:16:33;99931.53;;;30.59;53.00
34031;BME280;20319;28.466;-16.274;2022-08-16T12:18:59;99939.19;;;30.72;52.42
34031;BME280;20319;28.466;-16.274;2022-08-16T12:21:24;99947.50;;;30.82;52.44
34031;BME280;20319;28.466;-16.274;2022-08-16T12:23:50;99915.78;;;30.49;53.12
34031;BME280;20319;28.466;-16.274;2022-08-16T12:26:16;99932.03;;;30.61;53.08
34031;BME280;20319;28.466;-16.274;2022-08-16T12:28:42;99921.50;;;30.68;52.86
34031;BME280;20319;28.466;-16.274;2022-08-16T12:31:09;99931.72;;;30.72;52.36
34031;BME280;20319;28.466;-16.274;2022-08-16T12:33:35;99936.44;;;30.82;52.37
34031;BME280;20319;28.466;-16.274;2022-08-16T12:36:00;99931.69;;;30.92;52.44
34031;BME280;20319;28.466;-16.274;2022-08-16T12:38:26;99927.75;;;31.03;52.74
34031;BME280;20319;28.466;-16.274;2022-08-16T12:40:52;99919.16;;;31.05;52.10
34031;BME280;20319;28.466;-16.274;2022-08-16T12:43:18;99917.56;;;30.94;52.04
34031;BME280;20319;28.466;-16.274;2022-08-16T12:45:54;99919.97;;;31.05;51.98